sensor_id;sensor_type;location;lat;lon;timestamp;temperature;humidity
12948;DHT22;6539;49.476;8.484;2023-03-01T00:01:30;4.30;99.90
12948;DHT22;6539;49.476;8.484;2023-03-01T00:03:58;4.50;99.90
12948;DHT22;6539;49.476;8.484;2023-03-01T00:06:26;4.60;99.90
12948;DHT22;6539;49.476;8.484;2023-03-01T00:08:53;4.50;99.90
12948;DHT22;6539;49.476;8.484;2023-03-01T00:11:27;4.40;99.90
12948;DHT22;6539;49.476;8.484;2023-03-01T00:13:58;4.50;99.90
12948;DHT22;6539;49.476;8.484;2023-03-01T00:18:59;4.50;99.90
12948;DHT22;6539;49.476;8.484;2023-03-01T00:21:30;4.30;99.90
12948;DHT22;6539;49.476;8.484;2023-03-01T00:23:56;4.30;99.90
12948;DHT22;6539;49.476;8.484;2023-03-01T00:26:26;4.60;99.90
12948;DHT22;6539;49.476;8.484;2023-03-01T00:28:53;4.30;99.90
12948;DHT22;6539;49.476;8.484;2023-03-01T00:31:25;4.50;99.90
12948;DHT22;6539;49.476;8.484;2023-03-01T00:33:54;4.30;99.90
12948;DHT22;6539;49.476;8.484;2023-03-01T00:36:26;4.20;99.90
12948;DHT22;6539;49.476;8.484;2023-03-01T00:38:53;4.50;99.90
12948;DHT22;6539;49.476;8.484;2023-03-01T00:41:20;4.20;99.90
12948;DHT22;6539;49.476;8.484;2023-03-01T00:43:52;4.40;99.90
12948;DHT22;6539;49.476;8.484;2023-03-01T00:46:24;4.40;99.90
12948;DHT22;6539;49.476;8.484;2023-03-01T00:48:55;4.40;99.90
12948;DHT22;6539;49.476;8.484;2023-03-01T00:51:26;4.50;99.90
12948;DHT22;6539;49.476;8.484;2023-03-01T00:53:54;4.20;99.90
12948;DHT22;6539;49.476;8.484;2023-03-01T00:56:25;4.00;99.90
12948;DHT22;6539;49.476;8.484;2023-03-01T00:58:51;4.30;99.90
12948;DHT22;6539;49.476;8.484;2023-03-01T01:01:24;4.20;99.90
12948;DHT22;6539;49.476;8.484;2023-03-01T01:03:58;4.30;99.90
12948;DHT22;6539;49.476;8.484;2023-03-01T01:06:35;4.40;99.90
12948;DHT22;6539;49.476;8.484;2023-03-01T01:09:06;3.90;99.90
12948;DHT22;6539;49.476;8.484;2023-03-01T01:11:35;4.00;99.90
12948;DHT22;6539;49.476;8.484;2023-03-01T01:14:04;4.30;99.90
12948;DHT22;6539;49.476;8.484;2023-03-01T01:16:30;4.10;99.90
12948;DHT22;6539;49.476;8.484;2023-03-01T01:18:59;3.90;99.90
12948;DHT22;6539;49.476;8.484;2023-03-01T01:21:27;4.20;99.90
12948;DHT22;6539;49.476;8.484;2023-03-01T01:23:56;4.10;99.90
12948;DHT22;6539;49.476;8.484;2023-03-01T01:26:25;4.10;99.90
12948;DHT22;6539;49.476;8.484;2023-03-01T01:28:55;3.80;99.90
12948;DHT22;6539;49.476;8.484;2023-03-01T01:31:27;3.80;99.90
12948;DHT22;6539;49.476;8.484;2023-03-01T01:33:54;3.90;99.90
12948;DHT22;6539;49.476;8.484;2023-03-01T01:36:23;4.10;99.90
12948;DHT22;6539;49.476;8.484;2023-03-01T01:38:49;4.10;99.90
12948;DHT22;6539;49.476;8.484;2023-03-01T01:41:15;3.80;99.90
12948;DHT22;6539;49.476;8.484;2023-03-01T01:43:43;3.60;99.90
12948;DHT22;6539;49.476;8.484;2023-03-01T01:46:30;4.00;99.90
12948;DHT22;6539;49.476;8.484;2023-03-01T01:49:05;3.80;99.90
12948;DHT22;6539;49.476;8.484;2023-03-01T01:51:42;3.60;99.90
12948;DHT22;6539;49.476;8.484;2023-03-01T01:54:31;3.80;99.90
12948;DHT22;6539;49.476;8.484;2023-03-01T01:57:28;3.80;99.90
12948;DHT22;6539;49.476;8.484;2023-03-01T02:00:07;3.90;99.90
12948;DHT22;6539;49.476;8.484;2023-03-01T02:02:38;3.80;99.90
12948;DHT22;6539;49.476;8.484;2023-03-01T02:05:14;3.80;99.90
12948;DHT22;6539;49.476;8.484;2023-03-01T02:07:46;4.00;99.90
12948;DHT22;6539;49.476;8.484;2023-03-01T02:10:14;3.70;99.90
12948;DHT22;6539;49.476;8.484;2023-03-01T02:12:41;4.00;99.90
12948;DHT22;6539;49.476;8.484;2023-03-01T02:17:34;3.90;99.90
12948;DHT22;6539;49.476;8.484;2023-03-01T02:20:23;3.80;99.90
12948;DHT22;6539;49.476;8.484;2023-03-01T02:22:55;3.80;99.90
12948;DHT22;6539;49.476;8.484;2023-03-01T02:25:33;3.70;99.90
12948;DHT22;6539;49.476;8.484;2023-03-01T02:28:30;3.70;99.90
12948;DHT22;6539;49.476;8.484;2023-03-01T02:31:02;3.80;99.90
12948;DHT22;6539;49.476;8.484;2023-03-01T02:33:51;3.90;99.90
12948;DHT22;6539;49.476;8.484;2023-03-01T02:36:31;3.60;99.90
12948;DHT22;6539;49.476;8.484;2023-03-01T02:39:03;3.50;99.90
12948;DHT22;6539;49.476;8.484;2023-03-01T02:41:37;3.80;99.90
12948;DHT22;6539;49.476;8.484;2023-03-01T02:44:04;3.80;99.90
12948;DHT22;6539;49.476;8.484;2023-03-01T02:46:35;3.70;99.90
12948;DHT22;6539;49.476;8.484;2023-03-01T02:55:12;3.80;99.90
12948;DHT22;6539;49.476;8.484;2023-03-01T02:57:44;3.60;99.90
12948;DHT22;6539;49.476;8.484;2023-03-01T03:00:24;3.80;99.90
12948;DHT22;6539;49.476;8.484;2023-03-01T03:02:54;3.60;99.90
12948;DHT22;6539;49.476;8.484;2023-03-01T03:05:27;3.80;99.90
12948;DHT22;6539;49.476;8.484;2023-03-01T03:07:54;3.70;99.90
12948;DHT22;6539;49.476;8.484;2023-03-01T03:10:23;3.60;99.90
12948;DHT22;6539;49.476;8.484;2023-03-01T03:13:05;3.70;99.90
12948;DHT22;6539;49.476;8.484;2023-03-01T03:15:35;3.60;99.90
12948;DHT22;6539;49.476;8.484;2023-03-01T03:18:03;3.60;99.90
12948;DHT22;6539;49.476;8.484;2023-03-01T03:20:34;3.40;99.90
12948;DHT22;6539;49.476;8.484;2023-03-01T03:23:02;3.60;99.90
12948;DHT22;6539;49.476;8.484;2023-03-01T03:25:29;3.50;99.90
12948;DHT22;6539;49.476;8.484;2023-03-01T03:27:56;3.40;99.90
12948;DHT22;6539;49.476;8.484;2023-03-01T03:30:30;3.50;99.90
12948;DHT22;6539;49.476;8.484;2023-03-01T03:33:04;3.60;99.90
12948;DHT22;6539;49.476;8.484;2023-03-01T03:35:39;3.30;99.90
12948;DHT22;6539;49.476;8.484;2023-03-01T03:38:11;3.50;99.90
12948;DHT22;6539;49.476;8.484;2023-03-01T03:40:46;3.40;99.90
12948;DHT22;6539;49.476;8.484;2023-03-01T03:43:19;3.40;99.90
12948;DHT22;6539;49.476;8.484;2023-03-01T03:45:52;3.30;99.90
12948;DHT22;6539;49.476;8.484;2023-03-01T03:48:22;3.30;99.90
12948;DHT22;6539;49.476;8.484;2023-03-01T03:50:54;3.30;99.90
12948;DHT22;6539;49.476;8.484;2023-03-01T03:53:22;3.20;99.90
12948;DHT22;6539;49.476;8.484;2023-03-01T03:55:52;3.40;99.90
12948;DHT22;6539;49.476;8.484;2023-03-01T03:58:20;3.40;99.90
12948;DHT22;6539;49.476;8.484;2023-03-01T04:00:50;3.00;99.90
12948;DHT22;6539;49.476;8.484;2023-03-01T04:03:19;3.30;99.90
12948;DHT22;6539;49.476;8.484;2023-03-01T04:05:46;2.90;99.90
12948;DHT22;6539;49.476;8.484;2023-03-01T04:08:13;3.10;99.90
12948;DHT22;6539;49.476;8.484;2023-03-01T04:10:44;2.90;99.90
12948;DHT22;6539;49.476;8.484;2023-03-01T04:13:14;3.20;99.90
12948;DHT22;6539;49.476;8.484;2023-03-01T04:15:43;3.30;99.90
12948;DHT22;6539;49.476;8.484;2023-03-01T04:18:12;3.20;99.90
12948;DHT22;6539;49.476;8.484;2023-03-01T04:20:41;3.20;99.90
12948;DHT22;6539;49.476;8.484;2023-03-01T04:23:18;3.00;99.90
12948;DHT22;6539;49.476;8.484;2023-03-01T04:28:37;3.00;99.90
12948;DHT22;6539;49.476;8.484;2023-03-01T04:31:12;3.20;99.90
12948;DHT22;6539;49.476;8.484;2023-03-01T04:33:47;3.20;99.90
12948;DHT22;6539;49.476;8.484;2023-03-01T04:36:17;3.20;99.90
12948;DHT22;6539;49.476;8.484;2023-03-01T04:38:49;3.20;99.90
12948;DHT22;6539;49.476;8.484;2023-03-01T04:41:17;3.30;99.90
12948;DHT22;6539;49.476;8.484;2023-03-01T04:43:46;3.30;99.90
12948;DHT22;6539;49.476;8.484;2023-03-01T04:46:17;3.30;99.90
12948;DHT22;6539;49.476;8.484;2023-03-01T04:48:45;3.00;99.90
12948;DHT22;6539;49.476;8.484;2023-03-01T04:51:12;3.00;99.90
12948;DHT22;6539;49.476;8.484;2023-03-01T04:53:39;3.10;99.90
12948;DHT22;6539;49.476;8.484;2023-03-01T04:56:08;3.30;99.90
12948;DHT22;6539;49.476;8.484;2023-03-01T04:58:34;3.20;99.90
12948;DHT22;6539;49.476;8.484;2023-03-01T05:01:00;3.00;99.90
12948;DHT22;6539;49.476;8.484;2023-03-01T05:03:28;3.10;99.90
12948;DHT22;6539;49.476;8.484;2023-03-01T05:05:58;3.10;99.90
12948;DHT22;6539;49.476;8.484;2023-03-01T05:08:25;3.40;99.90
12948;DHT22;6539;49.476;8.484;2023-03-01T05:10:54;3.10;99.90
12948;DHT22;6539;49.476;8.484;2023-03-01T05:13:23;3.50;99.90
12948;DHT22;6539;49.476;8.484;2023-03-01T05:16:00;3.10;99.90
12948;DHT22;6539;49.476;8.484;2023-03-01T05:18:31;3.40;99.90
12948;DHT22;6539;49.476;8.484;2023-03-01T05:21:13;3.40;99.90
12948;DHT22;6539;49.476;8.484;2023-03-01T05:23:45;3.00;99.90
12948;DHT22;6539;49.476;8.484;2023-03-01T05:26:19;3.10;99.90
12948;DHT22;6539;49.476;8.484;2023-03-01T05:28:49;3.20;99.90
12948;DHT22;6539;49.476;8.484;2023-03-01T05:31:20;3.30;99.90
12948;DHT22;6539;49.476;8.484;2023-03-01T05:36:14;3.20;99.90
12948;DHT22;6539;49.476;8.484;2023-03-01T05:38:40;3.10;99.90
12948;DHT22;6539;49.476;8.484;2023-03-01T05:41:14;4.00;99.90
12948;DHT22;6539;49.476;8.484;2023-03-01T05:43:41;3.10;99.90
12948;DHT22;6539;49.476;8.484;2023-03-01T05:46:08;3.00;99.90
12948;DHT22;6539;49.476;8.484;2023-03-01T05:48:37;3.40;99.90
12948;DHT22;6539;49.476;8.484;2023-03-01T05:51:04;3.40;99.90
12948;DHT22;6539;49.476;8.484;2023-03-01T05:53:32;3.40;99.90
12948;DHT22;6539;49.476;8.484;2023-03-01T05:56:05;3.10;99.90
12948;DHT22;6539;49.476;8.484;2023-03-01T05:58:33;3.20;99.90
12948;DHT22;6539;49.476;8.484;2023-03-01T06:00:59;3.30;99.90
12948;DHT22;6539;49.476;8.484;2023-03-01T06:03:25;3.20;99.90
12948;DHT22;6539;49.476;8.484;2023-03-01T06:05:57;3.30;99.90
12948;DHT22;6539;49.476;8.484;2023-03-01T06:08:23;3.50;99.90
12948;DHT22;6539;49.476;8.484;2023-03-01T06:10:52;3.30;99.90
12948;DHT22;6539;49.476;8.484;2023-03-01T06:13:17;3.50;99.90
12948;DHT22;6539;49.476;8.484;2023-03-01T06:15:43;3.40;99.90
12948;DHT22;6539;49.476;8.484;2023-03-01T06:20:37;3.60;99.90
12948;DHT22;6539;49.476;8.484;2023-03-01T06:23:03;3.70;99.90
12948;DHT22;6539;49.476;8.484;2023-03-01T06:25:29;3.50;99.90
12948;DHT22;6539;49.476;8.484;2023-03-01T06:27:55;3.20;99.90
12948;DHT22;6539;49.476;8.484;2023-03-01T06:30:25;3.60;99.90
12948;DHT22;6539;49.476;8.484;2023-03-01T06:35:18;3.50;99.90
12948;DHT22;6539;49.476;8.484;2023-03-01T06:37:46;3.70;99.90
12948;DHT22;6539;49.476;8.484;2023-03-01T06:42:41;3.50;99.90
12948;DHT22;6539;49.476;8.484;2023-03-01T06:45:09;3.70;99.90
12948;DHT22;6539;49.476;8.484;2023-03-01T06:47:38;4.10;99.90
12948;DHT22;6539;49.476;8.484;2023-03-01T06:50:05;3.90;99.90
12948;DHT22;6539;49.476;8.484;2023-03-01T06:52:31;3.90;99.90
12948;DHT22;6539;49.476;8.484;2023-03-01T06:54:57;3.80;99.90
12948;DHT22;6539;49.476;8.484;2023-03-01T06:57:25;3.90;99.90
12948;DHT22;6539;49.476;8.484;2023-03-01T06:59:51;4.00;99.90
12948;DHT22;6539;49.476;8.484;2023-03-01T07:02:20;3.70;99.90
12948;DHT22;6539;49.476;8.484;2023-03-01T07:04:48;4.20;99.90
12948;DHT22;6539;49.476;8.484;2023-03-01T07:07:17;4.00;99.90
12948;DHT22;6539;49.476;8.484;2023-03-01T07:09:44;4.10;99.90
12948;DHT22;6539;49.476;8.484;2023-03-01T07:12:13;3.90;99.90
12948;DHT22;6539;49.476;8.484;2023-03-01T07:14:41;3.80;99.90
12948;DHT22;6539;49.476;8.484;2023-03-01T07:17:09;4.30;99.90
12948;DHT22;6539;49.476;8.484;2023-03-01T07:19:35;4.20;99.90
12948;DHT22;6539;49.476;8.484;2023-03-01T07:22:03;4.20;99.90
12948;DHT22;6539;49.476;8.484;2023-03-01T07:24:29;4.40;99.90
12948;DHT22;6539;49.476;8.484;2023-03-01T07:26:58;4.10;99.90
12948;DHT22;6539;49.476;8.484;2023-03-01T07:29:26;4.60;99.90
12948;DHT22;6539;49.476;8.484;2023-03-01T07:31:52;4.60;99.90
12948;DHT22;6539;49.476;8.484;2023-03-01T07:34:20;4.40;99.90
12948;DHT22;6539;49.476;8.484;2023-03-01T07:36:46;4.60;99.90
12948;DHT22;6539;49.476;8.484;2023-03-01T07:39:12;4.70;99.90
12948;DHT22;6539;49.476;8.484;2023-03-01T07:41:41;4.50;99.90
12948;DHT22;6539;49.476;8.484;2023-03-01T07:44:11;4.80;99.90
12948;DHT22;6539;49.476;8.484;2023-03-01T07:46:40;5.10;99.90
12948;DHT22;6539;49.476;8.484;2023-03-01T07:49:06;6.00;99.90
12948;DHT22;6539;49.476;8.484;2023-03-01T07:51:34;7.10;99.90
12948;DHT22;6539;49.476;8.484;2023-03-01T07:54:02;7.40;99.90
12948;DHT22;6539;49.476;8.484;2023-03-01T07:56:28;7.80;99.90
12948;DHT22;6539;49.476;8.484;2023-03-01T07:58:54;8.10;99.90
12948;DHT22;6539;49.476;8.484;2023-03-01T08:01:21;8.70;99.90
12948;DHT22;6539;49.476;8.484;2023-03-01T08:03:47;9.30;99.80
12948;DHT22;6539;49.476;8.484;2023-03-01T08:06:16;9.40;98.30
12948;DHT22;6539;49.476;8.484;2023-03-01T08:08:43;9.90;96.70
12948;DHT22;6539;49.476;8.484;2023-03-01T08:11:14;10.40;95.50
12948;DHT22;6539;49.476;8.484;2023-03-01T08:13:43;10.50;93.80
12948;DHT22;6539;49.476;8.484;2023-03-01T08:16:14;10.50;94.70
12948;DHT22;6539;49.476;8.484;2023-03-01T08:18:43;10.70;94.50
12948;DHT22;6539;49.476;8.484;2023-03-01T08:21:11;10.80;91.80
12948;DHT22;6539;49.476;8.484;2023-03-01T08:23:39;10.90;91.20
12948;DHT22;6539;49.476;8.484;2023-03-01T08:26:15;11.00;91.30
12948;DHT22;6539;49.476;8.484;2023-03-01T08:28:46;11.10;90.50
12948;DHT22;6539;49.476;8.484;2023-03-01T08:33:47;11.00;90.10
12948;DHT22;6539;49.476;8.484;2023-03-01T08:36:18;11.20;88.20
12948;DHT22;6539;49.476;8.484;2023-03-01T08:38:45;11.40;86.40
12948;DHT22;6539;49.476;8.484;2023-03-01T08:41:11;11.60;83.20
12948;DHT22;6539;49.476;8.484;2023-03-01T08:43:42;11.30;85.60
12948;DHT22;6539;49.476;8.484;2023-03-01T08:46:08;11.50;82.60
12948;DHT22;6539;49.476;8.484;2023-03-01T08:48:36;11.50;85.10
12948;DHT22;6539;49.476;8.484;2023-03-01T08:51:10;11.50;82.50
12948;DHT22;6539;49.476;8.484;2023-03-01T08:53:40;11.70;82.90
12948;DHT22;6539;49.476;8.484;2023-03-01T08:56:09;12.10;83.80
12948;DHT22;6539;49.476;8.484;2023-03-01T08:58:35;12.10;81.00
12948;DHT22;6539;49.476;8.484;2023-03-01T09:01:07;12.10;81.20
12948;DHT22;6539;49.476;8.484;2023-03-01T09:03:36;12.20;80.30
12948;DHT22;6539;49.476;8.484;2023-03-01T09:06:03;12.10;80.70
12948;DHT22;6539;49.476;8.484;2023-03-01T09:08:30;12.40;78.90
12948;DHT22;6539;49.476;8.484;2023-03-01T09:11:04;12.30;79.70
12948;DHT22;6539;49.476;8.484;2023-03-01T09:13:32;12.70;78.80
12948;DHT22;6539;49.476;8.484;2023-03-01T09:16:00;12.50;80.80
12948;DHT22;6539;49.476;8.484;2023-03-01T09:18:30;12.60;78.70
12948;DHT22;6539;49.476;8.484;2023-03-01T09:21:08;13.20;74.80
12948;DHT22;6539;49.476;8.484;2023-03-01T09:23:46;13.10;75.10
12948;DHT22;6539;49.476;8.484;2023-03-01T09:26:17;13.40;73.90
12948;DHT22;6539;49.476;8.484;2023-03-01T09:28:45;13.20;72.50
12948;DHT22;6539;49.476;8.484;2023-03-01T09:31:13;13.30;76.70
12948;DHT22;6539;49.476;8.484;2023-03-01T09:33:45;13.30;72.40
12948;DHT22;6539;49.476;8.484;2023-03-01T09:36:17;13.20;71.80
12948;DHT22;6539;49.476;8.484;2023-03-01T09:38:47;13.40;70.70
12948;DHT22;6539;49.476;8.484;2023-03-01T09:41:33;13.30;71.00
12948;DHT22;6539;49.476;8.484;2023-03-01T09:47:19;13.80;70.30
12948;DHT22;6539;49.476;8.484;2023-03-01T09:50:11;13.80;69.80
12948;DHT22;6539;49.476;8.484;2023-03-01T09:52:41;14.00;69.00
12948;DHT22;6539;49.476;8.484;2023-03-01T09:55:46;14.00;67.90
12948;DHT22;6539;49.476;8.484;2023-03-01T09:58:31;13.90;68.70
12948;DHT22;6539;49.476;8.484;2023-03-01T10:04:50;13.70;68.00
12948;DHT22;6539;49.476;8.484;2023-03-01T10:08:29;13.80;69.80
12948;DHT22;6539;49.476;8.484;2023-03-01T10:10:51;13.60;67.30
12948;DHT22;6539;49.476;8.484;2023-03-01T10:13:35;13.40;69.80
12948;DHT22;6539;49.476;8.484;2023-03-01T10:16:17;13.60;67.70
12948;DHT22;6539;49.476;8.484;2023-03-01T10:18:55;13.50;66.80
12948;DHT22;6539;49.476;8.484;2023-03-01T10:21:28;13.70;67.20
12948;DHT22;6539;49.476;8.484;2023-03-01T10:24:01;13.80;66.40
12948;DHT22;6539;49.476;8.484;2023-03-01T10:26:41;13.60;66.90
12948;DHT22;6539;49.476;8.484;2023-03-01T10:29:12;13.70;66.20
12948;DHT22;6539;49.476;8.484;2023-03-01T10:31:49;13.30;66.50
12948;DHT22;6539;49.476;8.484;2023-03-01T10:34:19;13.40;66.40
12948;DHT22;6539;49.476;8.484;2023-03-01T10:36:51;13.40;69.10
12948;DHT22;6539;49.476;8.484;2023-03-01T10:39:23;13.60;66.80
12948;DHT22;6539;49.476;8.484;2023-03-01T10:41:54;13.80;66.20
12948;DHT22;6539;49.476;8.484;2023-03-01T10:44:41;14.10;65.30
12948;DHT22;6539;49.476;8.484;2023-03-01T10:47:21;14.00;65.10
12948;DHT22;6539;49.476;8.484;2023-03-01T10:52:40;14.20;67.80
12948;DHT22;6539;49.476;8.484;2023-03-01T10:55:37;13.90;64.80
12948;DHT22;6539;49.476;8.484;2023-03-01T11:03:41;14.20;63.70
12948;DHT22;6539;49.476;8.484;2023-03-01T11:08:49;14.30;67.20
12948;DHT22;6539;49.476;8.484;2023-03-01T11:11:34;14.10;63.80
12948;DHT22;6539;49.476;8.484;2023-03-01T11:14:18;14.20;63.50
12948;DHT22;6539;49.476;8.484;2023-03-01T11:16:49;14.30;65.00
12948;DHT22;6539;49.476;8.484;2023-03-01T11:19:25;14.50;62.80
12948;DHT22;6539;49.476;8.484;2023-03-01T11:22:07;14.40;62.10
12948;DHT22;6539;49.476;8.484;2023-03-01T11:24:46;14.40;61.80
12948;DHT22;6539;49.476;8.484;2023-03-01T11:30:13;14.60;62.40
12948;DHT22;6539;49.476;8.484;2023-03-01T11:33:01;14.50;62.80
12948;DHT22;6539;49.476;8.484;2023-03-01T11:35:41;14.60;65.90
12948;DHT22;6539;49.476;8.484;2023-03-01T11:38:27;14.60;62.60
12948;DHT22;6539;49.476;8.484;2023-03-01T11:52:13;14.10;65.20
12948;DHT22;6539;49.476;8.484;2023-03-01T12:08:43;14.20;61.80
12948;DHT22;6539;49.476;8.484;2023-03-01T12:16:40;14.40;61.70
12948;DHT22;6539;49.476;8.484;2023-03-01T12:22:55;14.40;61.80
12948;DHT22;6539;49.476;8.484;2023-03-01T12:31:20;14.40;62.00
12948;DHT22;6539;49.476;8.484;2023-03-01T12:37:39;14.40;61.80
12948;DHT22;6539;49.476;8.484;2023-03-01T12:49:17;14.20;62.60
12948;DHT22;6539;49.476;8.484;2023-03-01T12:51:59;14.30;61.90
12948;DHT22;6539;49.476;8.484;2023-03-01T12:54:37;14.00;61.40
12948;DHT22;6539;49.476;8.484;2023-03-01T12:57:18;14.00;66.60
12948;DHT22;6539;49.476;8.484;2023-03-01T13:00:24;14.00;67.30
12948;DHT22;6539;49.476;8.484;2023-03-01T13:03:15;13.80;65.70
12948;DHT22;6539;49.476;8.484;2023-03-01T13:06:12;13.70;62.30
12948;DHT22;6539;49.476;8.484;2023-03-01T13:11:50;13.60;66.70
12948;DHT22;6539;49.476;8.484;2023-03-01T13:16:54;13.40;63.10
12948;DHT22;6539;49.476;8.484;2023-03-01T13:19:23;13.30;66.00
12948;DHT22;6539;49.476;8.484;2023-03-01T13:21:57;13.40;64.10
12948;DHT22;6539;49.476;8.484;2023-03-01T13:29:56;13.10;66.10
12948;DHT22;6539;49.476;8.484;2023-03-01T13:32:32;13.20;66.10
12948;DHT22;6539;49.476;8.484;2023-03-01T13:37:48;13.20;64.30
12948;DHT22;6539;49.476;8.484;2023-03-01T13:42:58;13.10;64.50
12948;DHT22;6539;49.476;8.484;2023-03-01T13:46:09;13.00;65.40
12948;DHT22;6539;49.476;8.484;2023-03-01T13:48:40;12.90;65.60
12948;DHT22;6539;49.476;8.484;2023-03-01T13:51:10;12.80;65.60
12948;DHT22;6539;49.476;8.484;2023-03-01T13:53:43;12.90;65.60
12948;DHT22;6539;49.476;8.484;2023-03-01T13:56:24;13.00;65.50
12948;DHT22;6539;49.476;8.484;2023-03-01T13:59:17;12.80;69.30
12948;DHT22;6539;49.476;8.484;2023-03-01T14:02:00;12.80;65.20
12948;DHT22;6539;49.476;8.484;2023-03-01T14:04:31;12.60;69.80
12948;DHT22;6539;49.476;8.484;2023-03-01T14:07:28;12.40;66.50
12948;DHT22;6539;49.476;8.484;2023-03-01T14:10:02;12.10;70.40
12948;DHT22;6539;49.476;8.484;2023-03-01T14:12:43;12.00;71.30
12948;DHT22;6539;49.476;8.484;2023-03-01T14:15:42;12.00;67.40
12948;DHT22;6539;49.476;8.484;2023-03-01T14:18:33;11.90;67.40
12948;DHT22;6539;49.476;8.484;2023-03-01T14:21:13;12.20;72.10
12948;DHT22;6539;49.476;8.484;2023-03-01T14:23:41;11.70;67.40
12948;DHT22;6539;49.476;8.484;2023-03-01T14:26:09;11.70;67.70
12948;DHT22;6539;49.476;8.484;2023-03-01T14:28:39;11.70;68.70
12948;DHT22;6539;49.476;8.484;2023-03-01T14:33:58;11.70;68.30
12948;DHT22;6539;49.476;8.484;2023-03-01T14:36:29;11.50;71.90
12948;DHT22;6539;49.476;8.484;2023-03-01T14:38:56;11.50;68.60
12948;DHT22;6539;49.476;8.484;2023-03-01T14:41:34;11.40;70.00
12948;DHT22;6539;49.476;8.484;2023-03-01T14:44:05;11.40;69.70
12948;DHT22;6539;49.476;8.484;2023-03-01T14:46:38;11.40;68.90
12948;DHT22;6539;49.476;8.484;2023-03-01T14:49:10;11.40;69.50
12948;DHT22;6539;49.476;8.484;2023-03-01T14:51:41;11.40;69.80
12948;DHT22;6539;49.476;8.484;2023-03-01T14:54:25;11.40;69.80
12948;DHT22;6539;49.476;8.484;2023-03-01T14:56:59;11.20;73.60
12948;DHT22;6539;49.476;8.484;2023-03-01T14:59:28;11.20;74.30
12948;DHT22;6539;49.476;8.484;2023-03-01T15:01:57;11.20;69.00
12948;DHT22;6539;49.476;8.484;2023-03-01T15:04:24;11.10;69.70
12948;DHT22;6539;49.476;8.484;2023-03-01T15:06:53;11.10;70.60
12948;DHT22;6539;49.476;8.484;2023-03-01T15:09:21;11.20;70.90
12948;DHT22;6539;49.476;8.484;2023-03-01T15:11:50;11.10;71.10
12948;DHT22;6539;49.476;8.484;2023-03-01T15:14:43;11.10;75.10
12948;DHT22;6539;49.476;8.484;2023-03-01T15:17:36;11.00;70.70
12948;DHT22;6539;49.476;8.484;2023-03-01T15:20:17;11.10;77.10
12948;DHT22;6539;49.476;8.484;2023-03-01T15:22:57;11.00;72.00
12948;DHT22;6539;49.476;8.484;2023-03-01T15:25:31;10.90;76.20
12948;DHT22;6539;49.476;8.484;2023-03-01T15:28:00;11.00;71.70
12948;DHT22;6539;49.476;8.484;2023-03-01T15:30:32;11.00;72.30
12948;DHT22;6539;49.476;8.484;2023-03-01T15:35:50;10.90;72.20
12948;DHT22;6539;49.476;8.484;2023-03-01T15:38:50;10.80;72.00
12948;DHT22;6539;49.476;8.484;2023-03-01T15:41:37;10.80;72.00
12948;DHT22;6539;49.476;8.484;2023-03-01T15:44:16;10.80;72.80
12948;DHT22;6539;49.476;8.484;2023-03-01T15:46:49;10.80;72.70
12948;DHT22;6539;49.476;8.484;2023-03-01T15:49:39;10.80;72.70
12948;DHT22;6539;49.476;8.484;2023-03-01T15:52:32;10.80;72.70
12948;DHT22;6539;49.476;8.484;2023-03-01T15:55:04;10.70;77.80
12948;DHT22;6539;49.476;8.484;2023-03-01T15:57:38;10.70;77.10
12948;DHT22;6539;49.476;8.484;2023-03-01T16:00:04;10.90;77.30
12948;DHT22;6539;49.476;8.484;2023-03-01T16:02:37;10.70;77.50
12948;DHT22;6539;49.476;8.484;2023-03-01T16:05:04;10.80;73.80
12948;DHT22;6539;49.476;8.484;2023-03-01T16:07:32;10.80;73.50
12948;DHT22;6539;49.476;8.484;2023-03-01T16:10:00;10.90;77.60
12948;DHT22;6539;49.476;8.484;2023-03-01T16:12:26;10.80;77.30
12948;DHT22;6539;49.476;8.484;2023-03-01T16:14:52;10.90;78.70
12948;DHT22;6539;49.476;8.484;2023-03-01T16:17:23;10.80;73.30
12948;DHT22;6539;49.476;8.484;2023-03-01T16:19:51;10.70;74.50
12948;DHT22;6539;49.476;8.484;2023-03-01T16:22:19;10.70;75.60
12948;DHT22;6539;49.476;8.484;2023-03-01T16:29:44;10.40;80.40
12948;DHT22;6539;49.476;8.484;2023-03-01T16:32:10;10.60;76.00
12948;DHT22;6539;49.476;8.484;2023-03-01T16:34:38;10.50;75.70
12948;DHT22;6539;49.476;8.484;2023-03-01T16:37:04;10.50;76.70
12948;DHT22;6539;49.476;8.484;2023-03-01T16:39:29;10.60;75.50
12948;DHT22;6539;49.476;8.484;2023-03-01T16:41:55;10.70;79.90
12948;DHT22;6539;49.476;8.484;2023-03-01T16:44:21;10.80;79.30
12948;DHT22;6539;49.476;8.484;2023-03-01T16:46:51;10.50;80.40
12948;DHT22;6539;49.476;8.484;2023-03-01T16:49:17;10.60;74.40
12948;DHT22;6539;49.476;8.484;2023-03-01T16:51:45;10.60;75.30
12948;DHT22;6539;49.476;8.484;2023-03-01T16:54:11;10.50;75.40
12948;DHT22;6539;49.476;8.484;2023-03-01T16:56:40;10.40;80.00
12948;DHT22;6539;49.476;8.484;2023-03-01T16:59:06;10.50;75.90
12948;DHT22;6539;49.476;8.484;2023-03-01T17:01:32;10.40;76.20
12948;DHT22;6539;49.476;8.484;2023-03-01T17:04:03;10.50;80.20
12948;DHT22;6539;49.476;8.484;2023-03-01T17:06:28;10.20;79.60
12948;DHT22;6539;49.476;8.484;2023-03-01T17:08:57;10.40;75.70
12948;DHT22;6539;49.476;8.484;2023-03-01T17:11:24;10.30;76.00
12948;DHT22;6539;49.476;8.484;2023-03-01T17:13:53;10.50;81.10
12948;DHT22;6539;49.476;8.484;2023-03-01T17:16:21;10.30;82.50
12948;DHT22;6539;49.476;8.484;2023-03-01T17:18:50;10.20;76.40
12948;DHT22;6539;49.476;8.484;2023-03-01T17:21:20;10.20;76.40
12948;DHT22;6539;49.476;8.484;2023-03-01T17:23:46;10.30;82.10
12948;DHT22;6539;49.476;8.484;2023-03-01T17:26:14;10.10;77.80
12948;DHT22;6539;49.476;8.484;2023-03-01T17:28:41;10.10;78.00
12948;DHT22;6539;49.476;8.484;2023-03-01T17:31:08;10.10;78.50
12948;DHT22;6539;49.476;8.484;2023-03-01T17:33:39;10.00;82.80
12948;DHT22;6539;49.476;8.484;2023-03-01T17:36:04;9.70;84.00
12948;DHT22;6539;49.476;8.484;2023-03-01T17:38:32;9.90;80.40
12948;DHT22;6539;49.476;8.484;2023-03-01T17:41:02;10.00;83.70
12948;DHT22;6539;49.476;8.484;2023-03-01T17:43:30;9.90;80.80
12948;DHT22;6539;49.476;8.484;2023-03-01T17:46:01;9.80;85.60
12948;DHT22;6539;49.476;8.484;2023-03-01T17:48:29;9.90;86.60
12948;DHT22;6539;49.476;8.484;2023-03-01T17:50:55;9.90;81.60
12948;DHT22;6539;49.476;8.484;2023-03-01T17:53:25;9.90;87.50
12948;DHT22;6539;49.476;8.484;2023-03-01T17:55:59;9.60;86.80
12948;DHT22;6539;49.476;8.484;2023-03-01T17:58:26;9.80;83.00
12948;DHT22;6539;49.476;8.484;2023-03-01T18:00:54;9.70;83.50
12948;DHT22;6539;49.476;8.484;2023-03-01T18:03:20;9.60;86.50
12948;DHT22;6539;49.476;8.484;2023-03-01T18:05:48;9.60;87.20
12948;DHT22;6539;49.476;8.484;2023-03-01T18:08:17;9.50;87.80
12948;DHT22;6539;49.476;8.484;2023-03-01T18:10:43;9.50;88.10
12948;DHT22;6539;49.476;8.484;2023-03-01T18:13:09;9.50;88.00
12948;DHT22;6539;49.476;8.484;2023-03-01T18:15:35;9.40;91.70
12948;DHT22;6539;49.476;8.484;2023-03-01T18:18:02;9.40;89.50
12948;DHT22;6539;49.476;8.484;2023-03-01T18:20:30;9.20;91.20
12948;DHT22;6539;49.476;8.484;2023-03-01T18:22:59;9.40;88.20
12948;DHT22;6539;49.476;8.484;2023-03-01T18:25:25;9.30;91.60
12948;DHT22;6539;49.476;8.484;2023-03-01T18:27:53;9.40;91.60
12948;DHT22;6539;49.476;8.484;2023-03-01T18:30:19;9.20;92.40
12948;DHT22;6539;49.476;8.484;2023-03-01T18:32:44;9.20;89.90